sensor_id;sensor_type;location;lat;lon;timestamp;temperature;humidity
5938;DHT22;2994;51.220;4.412;2023-05-14T00:00:38;17.97;67.08
5938;DHT22;2994;51.220;4.412;2023-05-14T00:03:03;17.98;66.81
5938;DHT22;2994;51.220;4.412;2023-05-14T00:05:29;17.96;66.59
5938;DHT22;2994;51.220;4.412;2023-05-14T00:07:54;17.94;66.68
5938;DHT22;2994;51.220;4.412;2023-05-14T00:10:20;17.93;66.64
5938;DHT22;2994;51.220;4.412;2023-05-14T00:12:46;17.90;66.59
5938;DHT22;2994;51.220;4.412;2023-05-14T00:15:11;17.90;66.39
5938;DHT22;2994;51.220;4.412;2023-05-14T00:17:37;17.91;66.25
5938;DHT22;2994;51.220;4.412;2023-05-14T00:20:04;17.90;66.24
5938;DHT22;2994;51.220;4.412;2023-05-14T00:22:31;17.91;66.23
5938;DHT22;2994;51.220;4.412;2023-05-14T00:24:57;17.89;65.90
5938;DHT22;2994;51.220;4.412;2023-05-14T00:27:23;17.85;66.00
5938;DHT22;2994;51.220;4.412;2023-05-14T00:29:48;17.83;66.03
5938;DHT22;2994;51.220;4.412;2023-05-14T00:32:14;17.82;65.96
5938;DHT22;2994;51.220;4.412;2023-05-14T00:34:39;17.81;66.03
5938;DHT22;2994;51.220;4.412;2023-05-14T00:37:05;17.76;66.01
5938;DHT22;2994;51.220;4.412;2023-05-14T00:39:30;17.74;66.14
5938;DHT22;2994;51.220;4.412;2023-05-14T00:41:56;17.73;66.31
5938;DHT22;2994;51.220;4.412;2023-05-14T00:44:21;17.72;66.14
5938;DHT22;2994;51.220;4.412;2023-05-14T00:46:47;17.72;66.28
5938;DHT22;2994;51.220;4.412;2023-05-14T00:49:12;17.72;66.04
5938;DHT22;2994;51.220;4.412;2023-05-14T00:51:38;17.70;66.11
5938;DHT22;2994;51.220;4.412;2023-05-14T00:54:05;17.68;66.27
5938;DHT22;2994;51.220;4.412;2023-05-14T00:56:31;17.63;66.24
5938;DHT22;2994;51.220;4.412;2023-05-14T00:58:57;17.61;66.11
5938;DHT22;2994;51.220;4.412;2023-05-14T01:01:23;17.61;65.93
5938;DHT22;2994;51.220;4.412;2023-05-14T01:03:48;17.61;65.86
5938;DHT22;2994;51.220;4.412;2023-05-14T01:14:39;17.44;66.15
5938;DHT22;2994;51.220;4.412;2023-05-14T01:17:09;17.43;66.07
5938;DHT22;2994;51.220;4.412;2023-05-14T01:19:41;17.41;66.19
5938;DHT22;2994;51.220;4.412;2023-05-14T01:22:06;17.41;66.20
5938;DHT22;2994;51.220;4.412;2023-05-14T01:24:32;17.43;66.07
5938;DHT22;2994;51.220;4.412;2023-05-14T01:27:05;17.39;66.24
5938;DHT22;2994;51.220;4.412;2023-05-14T01:29:32;17.40;66.24
5938;DHT22;2994;51.220;4.412;2023-05-14T01:32:02;17.37;66.36
5938;DHT22;2994;51.220;4.412;2023-05-14T01:34:29;17.35;66.14
5938;DHT22;2994;51.220;4.412;2023-05-14T01:36:56;17.33;66.26
5938;DHT22;2994;51.220;4.412;2023-05-14T01:39:24;17.35;66.06
5938;DHT22;2994;51.220;4.412;2023-05-14T01:41:51;17.29;66.09
5938;DHT22;2994;51.220;4.412;2023-05-14T01:44:17;17.22;66.42
5938;DHT22;2994;51.220;4.412;2023-05-14T01:46:43;17.18;66.52
5938;DHT22;2994;51.220;4.412;2023-05-14T01:49:08;17.14;66.67
5938;DHT22;2994;51.220;4.412;2023-05-14T01:51:34;17.15;66.56
5938;DHT22;2994;51.220;4.412;2023-05-14T01:53:59;17.09;66.80
5938;DHT22;2994;51.220;4.412;2023-05-14T01:56:25;17.13;66.63
5938;DHT22;2994;51.220;4.412;2023-05-14T01:58:51;17.10;66.70
5938;DHT22;2994;51.220;4.412;2023-05-14T02:01:16;17.10;66.85
5938;DHT22;2994;51.220;4.412;2023-05-14T02:03:42;17.02;67.10
5938;DHT22;2994;51.220;4.412;2023-05-14T02:06:07;17.01;67.27
5938;DHT22;2994;51.220;4.412;2023-05-14T02:08:33;16.96;67.30
5938;DHT22;2994;51.220;4.412;2023-05-14T02:10:58;17.01;67.23
5938;DHT22;2994;51.220;4.412;2023-05-14T02:13:24;16.96;67.02
5938;DHT22;2994;51.220;4.412;2023-05-14T02:15:50;16.96;67.02
5938;DHT22;2994;51.220;4.412;2023-05-14T02:18:15;16.99;66.95
5938;DHT22;2994;51.220;4.412;2023-05-14T02:20:41;16.91;67.11
5938;DHT22;2994;51.220;4.412;2023-05-14T02:23:06;16.92;66.97
5938;DHT22;2994;51.220;4.412;2023-05-14T02:25:32;16.93;66.94
5938;DHT22;2994;51.220;4.412;2023-05-14T02:27:57;16.90;66.99
5938;DHT22;2994;51.220;4.412;2023-05-14T02:30:23;16.89;66.89
5938;DHT22;2994;51.220;4.412;2023-05-14T02:32:48;16.90;66.91
5938;DHT22;2994;51.220;4.412;2023-05-14T02:35:14;16.89;67.02
5938;DHT22;2994;51.220;4.412;2023-05-14T02:37:39;16.87;67.05
5938;DHT22;2994;51.220;4.412;2023-05-14T02:40:05;16.82;67.07
5938;DHT22;2994;51.220;4.412;2023-05-14T02:42:31;16.87;66.86
5938;DHT22;2994;51.220;4.412;2023-05-14T02:44:56;16.81;66.91
5938;DHT22;2994;51.220;4.412;2023-05-14T02:47:22;16.78;67.04
5938;DHT22;2994;51.220;4.412;2023-05-14T02:49:47;16.79;67.07
5938;DHT22;2994;51.220;4.412;2023-05-14T02:52:13;16.80;66.88
5938;DHT22;2994;51.220;4.412;2023-05-14T02:54:38;16.80;66.95
5938;DHT22;2994;51.220;4.412;2023-05-14T02:57:04;16.77;66.80
5938;DHT22;2994;51.220;4.412;2023-05-14T02:59:29;16.74;66.81
5938;DHT22;2994;51.220;4.412;2023-05-14T03:01:55;16.74;66.93
5938;DHT22;2994;51.220;4.412;2023-05-14T03:04:22;16.74;66.85
5938;DHT22;2994;51.220;4.412;2023-05-14T03:06:47;16.74;66.69
5938;DHT22;2994;51.220;4.412;2023-05-14T03:09:13;16.72;66.72
5938;DHT22;2994;51.220;4.412;2023-05-14T03:11:38;16.74;66.85
5938;DHT22;2994;51.220;4.412;2023-05-14T03:14:04;16.72;66.84
5938;DHT22;2994;51.220;4.412;2023-05-14T03:16:29;16.71;66.80
5938;DHT22;2994;51.220;4.412;2023-05-14T03:18:55;16.70;66.68
5938;DHT22;2994;51.220;4.412;2023-05-14T03:21:20;16.69;66.78
5938;DHT22;2994;51.220;4.412;2023-05-14T03:23:45;16.67;66.56
5938;DHT22;2994;51.220;4.412;2023-05-14T03:26:11;16.64;66.53
5938;DHT22;2994;51.220;4.412;2023-05-14T03:28:36;16.60;66.63
5938;DHT22;2994;51.220;4.412;2023-05-14T03:31:02;16.60;66.59
5938;DHT22;2994;51.220;4.412;2023-05-14T03:33:27;16.59;66.92
5938;DHT22;2994;51.220;4.412;2023-05-14T03:35:53;16.62;66.73
5938;DHT22;2994;51.220;4.412;2023-05-14T03:38:18;16.55;66.93
5938;DHT22;2994;51.220;4.412;2023-05-14T03:40:44;16.54;66.88
5938;DHT22;2994;51.220;4.412;2023-05-14T03:43:10;16.54;66.91
5938;DHT22;2994;51.220;4.412;2023-05-14T03:45:35;16.54;66.90
5938;DHT22;2994;51.220;4.412;2023-05-14T03:48:01;16.54;66.90
5938;DHT22;2994;51.220;4.412;2023-05-14T03:50:26;16.55;66.76
5938;DHT22;2994;51.220;4.412;2023-05-14T03:52:52;16.54;66.69
5938;DHT22;2994;51.220;4.412;2023-05-14T03:55:19;16.57;66.61
5938;DHT22;2994;51.220;4.412;2023-05-14T03:57:45;16.56;66.48
5938;DHT22;2994;51.220;4.412;2023-05-14T04:00:11;16.54;66.40
5938;DHT22;2994;51.220;4.412;2023-05-14T04:02:36;16.52;66.44
5938;DHT22;2994;51.220;4.412;2023-05-14T04:05:02;16.52;66.51
5938;DHT22;2994;51.220;4.412;2023-05-14T04:07:28;16.55;66.45
5938;DHT22;2994;51.220;4.412;2023-05-14T04:09:54;16.52;66.33
5938;DHT22;2994;51.220;4.412;2023-05-14T04:12:19;16.54;66.23
5938;DHT22;2994;51.220;4.412;2023-05-14T04:14:45;16.50;66.32
5938;DHT22;2994;51.220;4.412;2023-05-14T04:17:10;16.49;66.26
5938;DHT22;2994;51.220;4.412;2023-05-14T04:19:35;16.50;66.51
5938;DHT22;2994;51.220;4.412;2023-05-14T04:22:01;16.51;66.21
5938;DHT22;2994;51.220;4.412;2023-05-14T04:24:26;16.49;66.24
5938;DHT22;2994;51.220;4.412;2023-05-14T04:26:52;16.49;66.25
5938;DHT22;2994;51.220;4.412;2023-05-14T04:29:17;16.47;66.39
5938;DHT22;2994;51.220;4.412;2023-05-14T04:31:43;16.48;66.64
5938;DHT22;2994;51.220;4.412;2023-05-14T04:34:08;16.48;66.81
5938;DHT22;2994;51.220;4.412;2023-05-14T04:36:34;16.50;66.91
5938;DHT22;2994;51.220;4.412;2023-05-14T04:38:59;16.47;66.77
5938;DHT22;2994;51.220;4.412;2023-05-14T04:41:25;16.49;66.71
5938;DHT22;2994;51.220;4.412;2023-05-14T04:43:54;16.48;66.98
5938;DHT22;2994;51.220;4.412;2023-05-14T04:46:20;16.49;67.05
5938;DHT22;2994;51.220;4.412;2023-05-14T04:48:46;16.50;66.89
5938;DHT22;2994;51.220;4.412;2023-05-14T04:51:13;16.50;67.02
5938;DHT22;2994;51.220;4.412;2023-05-14T04:53:38;16.50;66.97
5938;DHT22;2994;51.220;4.412;2023-05-14T04:56:04;16.48;67.15
5938;DHT22;2994;51.220;4.412;2023-05-14T04:58:29;16.50;66.99
5938;DHT22;2994;51.220;4.412;2023-05-14T05:00:57;16.47;67.14
5938;DHT22;2994;51.220;4.412;2023-05-14T05:03:22;16.45;67.26
5938;DHT22;2994;51.220;4.412;2023-05-14T05:05:48;16.44;67.27
5938;DHT22;2994;51.220;4.412;2023-05-14T05:08:13;16.48;67.26
5938;DHT22;2994;51.220;4.412;2023-05-14T05:10:38;16.47;67.09
5938;DHT22;2994;51.220;4.412;2023-05-14T05:13:04;16.46;67.19
5938;DHT22;2994;51.220;4.412;2023-05-14T05:15:29;16.45;67.20
5938;DHT22;2994;51.220;4.412;2023-05-14T05:17:55;16.47;67.26
5938;DHT22;2994;51.220;4.412;2023-05-14T05:20:20;16.49;67.30
5938;DHT22;2994;51.220;4.412;2023-05-14T05:22:46;16.50;67.12
5938;DHT22;2994;51.220;4.412;2023-05-14T05:25:11;16.48;67.26
5938;DHT22;2994;51.220;4.412;2023-05-14T05:27:37;16.47;67.30
5938;DHT22;2994;51.220;4.412;2023-05-14T05:30:03;16.46;67.36
5938;DHT22;2994;51.220;4.412;2023-05-14T05:32:29;16.48;67.46
5938;DHT22;2994;51.220;4.412;2023-05-14T05:34:55;16.47;67.49
5938;DHT22;2994;51.220;4.412;2023-05-14T05:37:21;16.48;67.55
5938;DHT22;2994;51.220;4.412;2023-05-14T05:39:46;16.36;68.01
5938;DHT22;2994;51.220;4.412;2023-05-14T05:42:12;16.40;67.98
5938;DHT22;2994;51.220;4.412;2023-05-14T05:44:38;16.42;68.00
5938;DHT22;2994;51.220;4.412;2023-05-14T05:47:04;16.46;67.73
5938;DHT22;2994;51.220;4.412;2023-05-14T05:49:29;16.50;67.65
5938;DHT22;2994;51.220;4.412;2023-05-14T05:51:55;16.55;67.78
5938;DHT22;2994;51.220;4.412;2023-05-14T05:54:22;16.46;68.07
5938;DHT22;2994;51.220;4.412;2023-05-14T05:56:48;16.48;67.90
5938;DHT22;2994;51.220;4.412;2023-05-14T05:59:14;16.54;68.01
5938;DHT22;2994;51.220;4.412;2023-05-14T06:01:39;16.60;67.72
5938;DHT22;2994;51.220;4.412;2023-05-14T06:04:05;16.60;67.75
5938;DHT22;2994;51.220;4.412;2023-05-14T06:06:31;16.63;68.11
5938;DHT22;2994;51.220;4.412;2023-05-14T06:08:57;16.72;68.10
5938;DHT22;2994;51.220;4.412;2023-05-14T06:11:22;16.63;68.57
5938;DHT22;2994;51.220;4.412;2023-05-14T06:13:48;16.56;69.05
5938;DHT22;2994;51.220;4.412;2023-05-14T06:16:13;16.61;68.97
5938;DHT22;2994;51.220;4.412;2023-05-14T06:18:39;16.67;69.07
5938;DHT22;2994;51.220;4.412;2023-05-14T06:21:04;16.70;69.41
5938;DHT22;2994;51.220;4.412;2023-05-14T06:23:30;16.61;70.05
5938;DHT22;2994;51.220;4.412;2023-05-14T06:25:55;16.58;70.23
5938;DHT22;2994;51.220;4.412;2023-05-14T06:28:20;16.69;69.78
5938;DHT22;2994;51.220;4.412;2023-05-14T06:30:48;16.78;69.71
5938;DHT22;2994;51.220;4.412;2023-05-14T06:33:14;16.85;69.84
5938;DHT22;2994;51.220;4.412;2023-05-14T06:35:40;16.87;69.90
5938;DHT22;2994;51.220;4.412;2023-05-14T06:38:05;16.69;70.84
5938;DHT22;2994;51.220;4.412;2023-05-14T06:40:30;16.57;71.24
5938;DHT22;2994;51.220;4.412;2023-05-14T06:42:56;16.82;70.25
5938;DHT22;2994;51.220;4.412;2023-05-14T06:45:21;16.91;69.88
5938;DHT22;2994;51.220;4.412;2023-05-14T06:47:47;16.94;69.42
5938;DHT22;2994;51.220;4.412;2023-05-14T06:50:13;17.00;69.27
5938;DHT22;2994;51.220;4.412;2023-05-14T06:52:38;17.05;68.71
5938;DHT22;2994;51.220;4.412;2023-05-14T06:55:04;17.13;68.58
5938;DHT22;2994;51.220;4.412;2023-05-14T06:57:29;17.19;67.98
5938;DHT22;2994;51.220;4.412;2023-05-14T06:59:55;17.23;68.01
5938;DHT22;2994;51.220;4.412;2023-05-14T07:02:21;17.31;67.11
5938;DHT22;2994;51.220;4.412;2023-05-14T07:04:47;17.31;67.43
5938;DHT22;2994;51.220;4.412;2023-05-14T07:07:12;17.13;68.40
5938;DHT22;2994;51.220;4.412;2023-05-14T07:09:40;17.35;67.62
5938;DHT22;2994;51.220;4.412;2023-05-14T07:12:06;17.39;67.68
5938;DHT22;2994;51.220;4.412;2023-05-14T07:14:32;17.44;67.09
5938;DHT22;2994;51.220;4.412;2023-05-14T07:16:59;17.47;66.62
5938;DHT22;2994;51.220;4.412;2023-05-14T07:19:24;17.49;66.78
5938;DHT22;2994;51.220;4.412;2023-05-14T07:21:52;17.53;66.11
5938;DHT22;2994;51.220;4.412;2023-05-14T07:24:18;17.56;66.09
5938;DHT22;2994;51.220;4.412;2023-05-14T07:26:43;17.61;66.36
5938;DHT22;2994;51.220;4.412;2023-05-14T07:29:09;17.63;66.28
5938;DHT22;2994;51.220;4.412;2023-05-14T07:31:34;17.59;66.75
5938;DHT22;2994;51.220;4.412;2023-05-14T07:34:00;17.65;66.34
5938;DHT22;2994;51.220;4.412;2023-05-14T07:36:25;17.61;65.92
5938;DHT22;2994;51.220;4.412;2023-05-14T07:38:51;17.63;66.01
5938;DHT22;2994;51.220;4.412;2023-05-14T07:41:17;17.68;65.95
5938;DHT22;2994;51.220;4.412;2023-05-14T07:43:42;17.76;66.11
5938;DHT22;2994;51.220;4.412;2023-05-14T07:46:08;17.63;65.88
5938;DHT22;2994;51.220;4.412;2023-05-14T07:48:33;17.73;65.59
5938;DHT22;2994;51.220;4.412;2023-05-14T07:50:59;17.72;66.20
5938;DHT22;2994;51.220;4.412;2023-05-14T07:53:24;17.87;65.69
5938;DHT22;2994;51.220;4.412;2023-05-14T07:55:50;17.99;65.03
5938;DHT22;2994;51.220;4.412;2023-05-14T07:58:15;18.04;64.87
5938;DHT22;2994;51.220;4.412;2023-05-14T08:00:41;17.93;65.03
5938;DHT22;2994;51.220;4.412;2023-05-14T08:03:07;18.00;65.09
5938;DHT22;2994;51.220;4.412;2023-05-14T08:05:32;18.00;65.46
5938;DHT22;2994;51.220;4.412;2023-05-14T08:07:58;18.11;65.62
5938;DHT22;2994;51.220;4.412;2023-05-14T08:10:23;18.12;65.17
5938;DHT22;2994;51.220;4.412;2023-05-14T08:12:49;18.15;64.84
5938;DHT22;2994;51.220;4.412;2023-05-14T08:15:14;18.15;64.59
5938;DHT22;2994;51.220;4.412;2023-05-14T08:17:40;18.22;64.69
5938;DHT22;2994;51.220;4.412;2023-05-14T08:20:06;18.33;64.79
5938;DHT22;2994;51.220;4.412;2023-05-14T08:22:31;18.23;65.64
5938;DHT22;2994;51.220;4.412;2023-05-14T08:24:57;18.37;64.10
5938;DHT22;2994;51.220;4.412;2023-05-14T08:27:23;18.32;63.52
5938;DHT22;2994;51.220;4.412;2023-05-14T08:29:49;18.06;64.40
5938;DHT22;2994;51.220;4.412;2023-05-14T08:32:14;18.13;64.32
5938;DHT22;2994;51.220;4.412;2023-05-14T08:34:40;18.04;64.70
5938;DHT22;2994;51.220;4.412;2023-05-14T08:37:05;18.13;64.59
5938;DHT22;2994;51.220;4.412;2023-05-14T08:39:31;18.06;65.02
5938;DHT22;2994;51.220;4.412;2023-05-14T08:41:56;18.22;64.58
5938;DHT22;2994;51.220;4.412;2023-05-14T08:44:32;18.00;64.96
5938;DHT22;2994;51.220;4.412;2023-05-14T08:46:59;18.14;65.11
5938;DHT22;2994;51.220;4.412;2023-05-14T08:49:40;18.49;64.14
5938;DHT22;2994;51.220;4.412;2023-05-14T08:52:07;18.39;63.76
5938;DHT22;2994;51.220;4.412;2023-05-14T08:54:32;18.26;64.06
5938;DHT22;2994;51.220;4.412;2023-05-14T08:56:58;18.32;63.88
5938;DHT22;2994;51.220;4.412;2023-05-14T08:59:24;18.20;64.42
5938;DHT22;2994;51.220;4.412;2023-05-14T09:01:52;18.36;64.30
5938;DHT22;2994;51.220;4.412;2023-05-14T09:04:23;18.53;63.63
5938;DHT22;2994;51.220;4.412;2023-05-14T09:06:51;18.47;63.27
5938;DHT22;2994;51.220;4.412;2023-05-14T09:09:18;18.27;64.01
5938;DHT22;2994;51.220;4.412;2023-05-14T09:11:47;18.59;63.31
5938;DHT22;2994;51.220;4.412;2023-05-14T09:14:13;18.71;63.92
5938;DHT22;2994;51.220;4.412;2023-05-14T09:16:39;18.86;62.57
5938;DHT22;2994;51.220;4.412;2023-05-14T09:19:06;18.86;62.47
5938;DHT22;2994;51.220;4.412;2023-05-14T09:21:33;18.99;61.63
5938;DHT22;2994;51.220;4.412;2023-05-14T09:23:59;19.01;61.79
5938;DHT22;2994;51.220;4.412;2023-05-14T09:26:26;19.09;62.37
5938;DHT22;2994;51.220;4.412;2023-05-14T09:28:56;19.05;61.45
5938;DHT22;2994;51.220;4.412;2023-05-14T09:31:22;18.68;61.93
5938;DHT22;2994;51.220;4.412;2023-05-14T09:33:51;18.97;61.04
5938;DHT22;2994;51.220;4.412;2023-05-14T09:36:17;19.03;61.43
5938;DHT22;2994;51.220;4.412;2023-05-14T09:38:57;19.00;61.84
5938;DHT22;2994;51.220;4.412;2023-05-14T09:41:27;19.08;61.71
5938;DHT22;2994;51.220;4.412;2023-05-14T09:43:52;19.30;61.03
5938;DHT22;2994;51.220;4.412;2023-05-14T09:46:18;19.32;60.50
5938;DHT22;2994;51.220;4.412;2023-05-14T09:48:44;19.37;60.59
5938;DHT22;2994;51.220;4.412;2023-05-14T09:51:10;19.45;60.31
5938;DHT22;2994;51.220;4.412;2023-05-14T09:53:36;19.43;60.60
5938;DHT22;2994;51.220;4.412;2023-05-14T09:56:01;19.40;60.70
5938;DHT22;2994;51.220;4.412;2023-05-14T09:58:27;19.27;60.90
5938;DHT22;2994;51.220;4.412;2023-05-14T10:00:54;19.36;60.99
5938;DHT22;2994;51.220;4.412;2023-05-14T10:03:24;19.42;60.83
5938;DHT22;2994;51.220;4.412;2023-05-14T10:05:51;19.22;61.18
5938;DHT22;2994;51.220;4.412;2023-05-14T10:08:34;19.46;60.86
5938;DHT22;2994;51.220;4.412;2023-05-14T10:11:18;19.56;61.30
5938;DHT22;2994;51.220;4.412;2023-05-14T10:14:13;19.94;60.26
5938;DHT22;2994;51.220;4.412;2023-05-14T10:16:46;20.02;59.43
5938;DHT22;2994;51.220;4.412;2023-05-14T10:19:15;20.05;59.19
5938;DHT22;2994;51.220;4.412;2023-05-14T10:21:44;20.06;58.41
5938;DHT22;2994;51.220;4.412;2023-05-14T10:24:11;20.04;58.80
5938;DHT22;2994;51.220;4.412;2023-05-14T10:26:38;20.00;59.80
5938;DHT22;2994;51.220;4.412;2023-05-14T10:29:14;20.24;59.48
5938;DHT22;2994;51.220;4.412;2023-05-14T10:31:51;20.12;58.63
5938;DHT22;2994;51.220;4.412;2023-05-14T10:34:39;20.42;57.88
5938;DHT22;2994;51.220;4.412;2023-05-14T10:37:16;20.46;57.73
5938;DHT22;2994;51.220;4.412;2023-05-14T10:42:15;20.19;58.35
5938;DHT22;2994;51.220;4.412;2023-05-14T10:44:50;20.33;58.47
5938;DHT22;2994;51.220;4.412;2023-05-14T10:47:16;20.50;58.20
5938;DHT22;2994;51.220;4.412;2023-05-14T10:49:43;20.07;58.57
5938;DHT22;2994;51.220;4.412;2023-05-14T10:52:10;19.84;59.15
5938;DHT22;2994;51.220;4.412;2023-05-14T10:54:36;20.09;58.81
5938;DHT22;2994;51.220;4.412;2023-05-14T10:57:02;20.14;58.90
5938;DHT22;2994;51.220;4.412;2023-05-14T10:59:28;20.37;58.70
5938;DHT22;2994;51.220;4.412;2023-05-14T11:01:56;20.27;58.47
5938;DHT22;2994;51.220;4.412;2023-05-14T11:04:26;20.41;58.22
5938;DHT22;2994;51.220;4.412;2023-05-14T11:06:52;20.57;57.55
5938;DHT22;2994;51.220;4.412;2023-05-14T11:09:20;20.32;58.45
5938;DHT22;2994;51.220;4.412;2023-05-14T11:11:45;20.62;58.09
5938;DHT22;2994;51.220;4.412;2023-05-14T11:14:12;20.39;58.31
5938;DHT22;2994;51.220;4.412;2023-05-14T11:16:38;20.72;59.06
5938;DHT22;2994;51.220;4.412;2023-05-14T11:19:05;20.66;57.94
5938;DHT22;2994;51.220;4.412;2023-05-14T11:21:31;20.53;58.13
5938;DHT22;2994;51.220;4.412;2023-05-14T11:23:59;20.40;58.43
5938;DHT22;2994;51.220;4.412;2023-05-14T11:26:25;20.51;58.09
5938;DHT22;2994;51.220;4.412;2023-05-14T11:28:51;20.79;58.55
5938;DHT22;2994;51.220;4.412;2023-05-14T11:31:16;20.80;58.74
5938;DHT22;2994;51.220;4.412;2023-05-14T11:33:42;21.10;57.16
5938;DHT22;2994;51.220;4.412;2023-05-14T11:36:10;21.30;56.66
5938;DHT22;2994;51.220;4.412;2023-05-14T11:38:45;21.30;56.21
5938;DHT22;2994;51.220;4.412;2023-05-14T11:41:13;21.37;56.35
5938;DHT22;2994;51.220;4.412;2023-05-14T11:43:39;21.45;55.92
5938;DHT22;2994;51.220;4.412;2023-05-14T11:46:05;21.79;55.12
5938;DHT22;2994;51.220;4.412;2023-05-14T11:48:31;21.70;58.65
5938;DHT22;2994;51.220;4.412;2023-05-14T11:50:57;21.91;55.46
5938;DHT22;2994;51.220;4.412;2023-05-14T11:53:27;22.22;54.36
5938;DHT22;2994;51.220;4.412;2023-05-14T11:55:54;21.51;55.61
5938;DHT22;2994;51.220;4.412;2023-05-14T11:58:20;21.52;55.72
5938;DHT22;2994;51.220;4.412;2023-05-14T12:00:49;21.88;55.55
5938;DHT22;2994;51.220;4.412;2023-05-14T12:03:14;21.77;59.30
5938;DHT22;2994;51.220;4.412;2023-05-14T12:05:40;22.23;56.16
5938;DHT22;2994;51.220;4.412;2023-05-14T12:08:25;22.31;54.75
5938;DHT22;2994;51.220;4.412;2023-05-14T12:10:52;22.07;54.35
5938;DHT22;2994;51.220;4.412;2023-05-14T12:13:18;22.21;54.54
5938;DHT22;2994;51.220;4.412;2023-05-14T12:15:55;22.24;56.30
5938;DHT22;2994;51.220;4.412;2023-05-14T12:18:21;22.78;53.27
5938;DHT22;2994;51.220;4.412;2023-05-14T12:20:48;22.79;55.02
5938;DHT22;2994;51.220;4.412;2023-05-14T12:23:15;22.93;55.22
5938;DHT22;2994;51.220;4.412;2023-05-14T12:25:49;23.32;53.04
5938;DHT22;2994;51.220;4.412;2023-05-14T12:28:18;23.52;51.20
5938;DHT22;2994;51.220;4.412;2023-05-14T12:30:45;23.71;50.57
5938;DHT22;2994;51.220;4.412;2023-05-14T12:33:10;23.68;52.01
5938;DHT22;2994;51.220;4.412;2023-05-14T12:35:36;23.62;52.20
5938;DHT22;2994;51.220;4.412;2023-05-14T12:38:02;23.80;50.27
5938;DHT22;2994;51.220;4.412;2023-05-14T12:40:28;24.12;49.91
5938;DHT22;2994;51.220;4.412;2023-05-14T12:42:53;23.95;49.41
5938;DHT22;2994;51.220;4.412;2023-05-14T12:45:19;24.09;51.05
5938;DHT22;2994;51.220;4.412;2023-05-14T12:47:44;24.19;50.82
5938;DHT22;2994;51.220;4.412;2023-05-14T12:50:10;24.39;50.36
5938;DHT22;2994;51.220;4.412;2023-05-14T12:52:35;24.34;51.26
5938;DHT22;2994;51.220;4.412;2023-05-14T12:55:01;24.01;48.95
5938;DHT22;2994;51.220;4.412;2023-05-14T12:57:27;23.89;51.01
5938;DHT22;2994;51.220;4.412;2023-05-14T12:59:54;24.42;49.02
5938;DHT22;2994;51.220;4.412;2023-05-14T13:02:19;24.58;50.12
5938;DHT22;2994;51.220;4.412;2023-05-14T13:04:46;24.80;48.28
5938;DHT22;2994;51.220;4.412;2023-05-14T13:07:11;24.85;49.23
5938;DHT22;2994;51.220;4.412;2023-05-14T13:09:37;24.93;49.22
5938;DHT22;2994;51.220;4.412;2023-05-14T13:12:03;25.23;48.58
5938;DHT22;2994;51.220;4.412;2023-05-14T13:14:28;25.24;46.66
5938;DHT22;2994;51.220;4.412;2023-05-14T13:16:54;25.02;46.67
5938;DHT22;2994;51.220;4.412;2023-05-14T13:19:19;25.17;47.50
5938;DHT22;2994;51.220;4.412;2023-05-14T13:21:45;25.15;46.93
5938;DHT22;2994;51.220;4.412;2023-05-14T13:24:10;25.35;46.44
5938;DHT22;2994;51.220;4.412;2023-05-14T13:26:36;25.54;46.18
5938;DHT22;2994;51.220;4.412;2023-05-14T13:29:02;25.42;45.07
5938;DHT22;2994;51.220;4.412;2023-05-14T13:31:27;25.51;45.52
5938;DHT22;2994;51.220;4.412;2023-05-14T13:33:53;25.35;45.76
5938;DHT22;2994;51.220;4.412;2023-05-14T13:36:18;25.35;46.16
5938;DHT22;2994;51.220;4.412;2023-05-14T13:38:44;25.15;46.07
5938;DHT22;2994;51.220;4.412;2023-05-14T13:41:12;25.24;46.29
5938;DHT22;2994;51.220;4.412;2023-05-14T13:43:38;25.07;45.16
5938;DHT22;2994;51.220;4.412;2023-05-14T13:46:04;25.03;47.21
5938;DHT22;2994;51.220;4.412;2023-05-14T13:48:30;24.65;46.18
5938;DHT22;2994;51.220;4.412;2023-05-14T13:50:56;24.79;46.57
5938;DHT22;2994;51.220;4.412;2023-05-14T13:53:23;24.54;47.22
5938;DHT22;2994;51.220;4.412;2023-05-14T13:55:49;24.63;47.43
5938;DHT22;2994;51.220;4.412;2023-05-14T13:58:15;24.50;48.59
5938;DHT22;2994;51.220;4.412;2023-05-14T14:00:41;24.70;47.92
5938;DHT22;2994;51.220;4.412;2023-05-14T14:03:07;24.76;46.40
5938;DHT22;2994;51.220;4.412;2023-05-14T14:05:35;24.51;46.80
5938;DHT22;2994;51.220;4.412;2023-05-14T14:08:01;24.42;47.43
5938;DHT22;2994;51.220;4.412;2023-05-14T14:10:27;24.58;47.76
5938;DHT22;2994;51.220;4.412;2023-05-14T14:12:52;24.74;47.32
5938;DHT22;2994;51.220;4.412;2023-05-14T14:15:18;24.70;47.72
5938;DHT22;2994;51.220;4.412;2023-05-14T14:17:43;24.79;46.10
5938;DHT22;2994;51.220;4.412;2023-05-14T14:20:09;24.76;47.71
5938;DHT22;2994;51.220;4.412;2023-05-14T14:22:35;24.89;46.64
5938;DHT22;2994;51.220;4.412;2023-05-14T14:25:02;24.82;46.42
5938;DHT22;2994;51.220;4.412;2023-05-14T14:27:27;24.70;46.31
5938;DHT22;2994;51.220;4.412;2023-05-14T14:29:55;24.74;47.08
5938;DHT22;2994;51.220;4.412;2023-05-14T14:32:21;24.75;47.05
5938;DHT22;2994;51.220;4.412;2023-05-14T14:34:46;24.62;46.15
5938;DHT22;2994;51.220;4.412;2023-05-14T14:37:11;24.50;46.57
5938;DHT22;2994;51.220;4.412;2023-05-14T14:39:37;24.42;47.64
5938;DHT22;2994;51.220;4.412;2023-05-14T14:42:02;24.30;46.15
5938;DHT22;2994;51.220;4.412;2023-05-14T14:44:28;24.33;46.23
5938;DHT22;2994;51.220;4.412;2023-05-14T14:46:53;24.27;46.64
5938;DHT22;2994;51.220;4.412;2023-05-14T14:49:19;23.90;46.54
5938;DHT22;2994;51.220;4.412;2023-05-14T14:51:44;23.95;47.04
5938;DHT22;2994;51.220;4.412;2023-05-14T14:54:11;23.96;45.86
5938;DHT22;2994;51.220;4.412;2023-05-14T14:56:36;23.73;46.57
5938;DHT22;2994;51.220;4.412;2023-05-14T14:59:02;23.67;47.83
5938;DHT22;2994;51.220;4.412;2023-05-14T15:01:27;23.50;48.35
5938;DHT22;2994;51.220;4.412;2023-05-14T15:03:53;23.65;47.11
5938;DHT22;2994;51.220;4.412;2023-05-14T15:06:18;23.81;46.52
5938;DHT22;2994;51.220;4.412;2023-05-14T15:08:44;23.89;45.35
5938;DHT22;2994;51.220;4.412;2023-05-14T15:11:09;23.91;43.71
5938;DHT22;2994;51.220;4.412;2023-05-14T15:13:34;24.83;42.39
5938;DHT22;2994;51.220;4.412;2023-05-14T15:16:00;26.19;39.43
5938;DHT22;2994;51.220;4.412;2023-05-14T15:18:28;27.28;36.27
5938;DHT22;2994;51.220;4.412;2023-05-14T15:20:55;28.24;34.52
5938;DHT22;2994;51.220;4.412;2023-05-14T15:23:20;28.89;33.25
5938;DHT22;2994;51.220;4.412;2023-05-14T15:25:46;29.45;32.33
5938;DHT22;2994;51.220;4.412;2023-05-14T15:28:13;29.46;32.25
5938;DHT22;2994;51.220;4.412;2023-05-14T15:30:38;29.81;31.38
5938;DHT22;2994;51.220;4.412;2023-05-14T15:33:06;30.67;30.55
5938;DHT22;2994;51.220;4.412;2023-05-14T15:35:32;31.38;29.27
5938;DHT22;2994;51.220;4.412;2023-05-14T15:37:57;31.36;28.36
5938;DHT22;2994;51.220;4.412;2023-05-14T15:40:23;32.13;27.36
5938;DHT22;2994;51.220;4.412;2023-05-14T15:42:48;33.28;25.84
5938;DHT22;2994;51.220;4.412;2023-05-14T15:45:13;33.94;23.97
5938;DHT22;2994;51.220;4.412;2023-05-14T15:47:40;35.00;22.83
5938;DHT22;2994;51.220;4.412;2023-05-14T15:50:06;34.53;23.19
5938;DHT22;2994;51.220;4.412;2023-05-14T15:52:33;34.44;22.89
5938;DHT22;2994;51.220;4.412;2023-05-14T15:54:59;34.22;23.98
5938;DHT22;2994;51.220;4.412;2023-05-14T15:57:24;34.36;23.11
5938;DHT22;2994;51.220;4.412;2023-05-14T15:59:50;34.00;23.93
5938;DHT22;2994;51.220;4.412;2023-05-14T16:02:16;34.41;23.52
5938;DHT22;2994;51.220;4.412;2023-05-14T16:04:42;32.53;25.14
5938;DHT22;2994;51.220;4.412;2023-05-14T16:07:09;30.34;27.94